Flight Track Log - Related Links

Times and Time Zones

All times are in EDT time to prevent confusion due to time zone crossing. See the N509QS flight status page for this flight to view local times or setup timezone preferences in your user account.


Time Position Orientation Groundspeed Altitude Reporting Facility
EDT Latitude Longitude Course Direction KTS MPH feet Rate Location/Type
Sat 10:20:14 AM 40.8167 -74.1167 288° West 195 224 1,500  Level New York TRACON
Sat 10:21:08 AM 40.8333 -74.1833 288° West 204 235 3,000 2,200 Climbing New York TRACON
Sat 10:22:14 AM 40.8667 -74.2667 298° West 252 290 5,900 3,095 Climbing New York TRACON
Sat 10:23:14 AM 40.9167 -74.3167 323° Northwest 273 314 9,500 3,000 Climbing New York TRACON
Sat 10:24:14 AM 41.0000 -74.3333 351° North 288 331 11,900 2,650 Climbing New York TRACON
Sat 10:25:14 AM 41.1000 -74.3667 346° North 339 390 14,800 1,624 Climbing New York TRACON
Sat 10:27:04 AM 41.2664 -74.3981 352° North 363 418 16,500 1,439 Climbing New York Center
Sat 10:28:05 AM 41.3508 -74.4275 345° North 352 405 18,900 2,231 Climbing New York Center
Sat 10:29:05 AM 41.4058 -74.5300 306° West 328 377 21,000 2,400 Climbing New York Center
Sat 10:30:05 AM 41.4431 -74.6706 289° West 333 383 23,700 2,479 Climbing New York Center
Sat 10:31:06 AM 41.4803 -74.8000 291° West 360 414 26,000 2,300 Climbing New York Center
Sat 10:32:05 AM 41.5214 -74.9328 293° West 380 437 28,300 2,359 Climbing New York Center
Sat 10:33:03 AM 41.5603 -75.0681 291° West 390 449 30,600 2,288 Climbing New York Center
Sat 10:34:03 AM 41.6011 -75.2039 292° West 395 455 32,800 1,686 Climbing New York Center
Sat 10:35:04 AM 41.6439 -75.3400 293° West 395 455 34,000 595 Climbing New York Center
Sat 10:36:04 AM 41.6842 -75.4817 291° West 401 461 34,000  Level New York Center
Sat 10:37:05 AM 41.7261 -75.6264 291° West 407 468 34,000  Level New York Center
Sat 10:38:03 AM 41.7700 -75.7742 292° West 419 482 34,000 458 Level New York Center
Sat 10:39:03 AM 41.8139 -75.9192 292° West 419 482 34,900 1,279 Climbing New York Center
Sat 10:40:05 AM 41.8533 -76.0644 290° West 419 482 36,600 1,756 Climbing New York Center
Sat 10:41:06 AM 41.8944 -76.2097 291° West 419 482 38,500 1,983 Climbing New York Center
Sat 10:42:03 AM 41.9319 -76.3467 290° West 408 470 40,500 1,518 Climbing New York Center
Sat 10:43:56 AM 42.0056 -76.6008 291° West 390 449 42,800 867 Climbing Cleveland Center
Sat 10:44:56 AM 42.0436 -76.7383 290° West 385 443 43,000 100 Climbing Cleveland Center
Sat 10:45:56 AM 42.0817 -76.8817 290° West 390 449 43,000  Level Cleveland Center
Sat 10:46:56 AM 42.1261 -77.0331 292° West 413 475 43,000  Level Cleveland Center
Sat 10:47:56 AM 42.1661 -77.1819 290° West 418 481 43,000  Level Cleveland Center
Sat 10:48:56 AM 42.2081 -77.3311 291° West 423 487 43,000  Level Cleveland Center
Sat 10:49:56 AM 42.2497 -77.4833 290° West 423 487 43,000  Level Cleveland Center
Sat 10:50:56 AM 42.2892 -77.6331 290° West 423 487 43,000  Level Cleveland Center
Sat 10:51:56 AM 42.3303 -77.7828 290° West 423 487 43,000  Level Cleveland Center
Sat 10:52:56 AM 42.3717 -77.9383 290° West 423 487 43,000  Level Cleveland Center
Sat 10:53:56 AM 42.4103 -78.0886 289° West 423 487 43,000  Level Cleveland Center
Sat 10:54:56 AM 42.4511 -78.2392 290° West 423 487 43,000  Level Cleveland Center
Sat 10:55:56 AM 42.4936 -78.3925 291° West 423 487 43,000  Level Cleveland Center
Sat 10:56:56 AM 42.5319 -78.5433 289° West 423 487 43,000  Level Cleveland Center
Sat 10:57:56 AM 42.5719 -78.6969 290° West 428 493 43,000  Level Cleveland Center
Sat 10:58:56 AM 42.6139 -78.8539 290° West 428 493 43,000  Level Cleveland Center
Sat 10:59:56 AM 42.6517 -79.0081 288° West 433 498 43,000  Level Cleveland Center
Sat 11:00:56 AM 42.6911 -79.1625 289° West 438 504 43,000  Level Cleveland Center
Sat 11:01:56 AM 42.7306 -79.3197 289° West 443 510 43,000  Level Cleveland Center
Sat 11:02:56 AM 42.7697 -79.4772 289° West 443 510 43,000  Level Cleveland Center
Sat 11:03:56 AM 42.8106 -79.6353 289° West 443 510 43,000  Level Cleveland Center
Sat 11:04:56 AM 42.8494 -79.7903 289° West 443 510 43,000  Level Cleveland Center
Sat 11:06:12 AM 42.8833 -79.9667 285° West 440 506 43,000  Level Toronto Center
Sat 11:07:12 AM 42.9167 -80.1333 285° West 440 506 43,000  Level Toronto Center
Sat 11:08:12 AM 42.9667 -80.2667 297° West 440 506 43,000  Level Toronto Center
Sat 11:09:12 AM 43.0000 -80.4333 285° West 440 506 43,000  Level Toronto Center
Sat 11:10:12 AM 43.0333 -80.5833 287° West 440 506 43,000  Level Toronto Center
Sat 11:11:12 AM 43.0833 -80.7500 292° West 440 506 43,000 150 Level Toronto Center
Sat 11:12:12 AM 43.1000 -80.9167 278° West 440 506 43,300 450 Climbing Toronto Center
Sat 11:13:12 AM 43.1333 -81.0667 287° West 430 495 43,900 600 Climbing Toronto Center
Sat 11:14:12 AM 43.1833 -81.2333 292° West 430 495 44,500 550 Climbing Toronto Center
Sat 11:15:12 AM 43.2167 -81.4000 285° West 430 495 45,000 250 Climbing Toronto Center
Sat 11:16:12 AM 43.2500 -81.5333 289° West 430 495 45,000  Level Toronto Center
Sat 11:17:12 AM 43.3000 -81.7000 292° West 430 495 45,000  Level Toronto Center
Sat 11:18:12 AM 43.3333 -81.8500 287° West 430 495 45,000  Level Toronto Center
Sat 11:19:12 AM 43.3500 -82.0167 278° West 430 495 45,000  Level Toronto Center
Sat 11:20:12 AM 43.4000 -82.1833 292° West 430 495 45,000  Level Toronto Center
Sat 11:20:44 AM 43.4214 -82.2522 293° West 436 502 45,000  Level Cleveland Center
Sat 11:21:44 AM 43.4586 -82.4136 288° West 436 502 45,000  Level Cleveland Center
Sat 11:22:44 AM 43.4933 -82.5719 287° West 436 502 45,000  Level Cleveland Center
Sat 11:23:44 AM 43.5261 -82.7306 286° West 436 502 45,000  Level Cleveland Center
Sat 11:24:44 AM 43.5603 -82.8922 286° West 436 502 45,000  Level Cleveland Center
Sat 11:26:30 AM 43.6206 -83.1819 286° West 440 506 45,000  Level Minneapolis Center
Sat 11:27:12 AM 43.6333 -83.3000 279° West 440 506 45,000  Level Toronto Center
Sat 11:27:32 AM 43.6553 -83.3433 305° West 439 505 45,000  Level Minneapolis Center
Sat 11:28:33 AM 43.6889 -83.5031 286° West 437 503 45,000  Level Minneapolis Center
Sat 11:29:35 AM 43.7219 -83.6639 286° West 438 504 45,000  Level Minneapolis Center
Sat 11:30:36 AM 43.7542 -83.8244 286° West 437 503 45,000  Level Minneapolis Center
Sat 11:31:38 AM 43.7883 -83.9869 286° West 440 506 45,000  Level Minneapolis Center
Sat 11:32:39 AM 43.8275 -84.1814 286° West 439 505 45,000  Level Minneapolis Center
Sat 11:33:41 AM 43.8597 -84.3422 286° West 437 503 45,000  Level Minneapolis Center
Sat 11:34:42 AM 43.8925 -84.5050 286° West 439 505 45,000  Level Minneapolis Center
Sat 11:35:56 AM 43.9242 -84.6658 285° West 437 503 45,000  Level Minneapolis Center
Sat 11:36:57 AM 43.9631 -84.8619 285° West 440 506 45,000  Level Minneapolis Center
Sat 11:37:59 AM 43.9947 -85.0264 285° West 441 507 45,000  Level Minneapolis Center
Sat 11:39:00 AM 44.0253 -85.1886 285° West 439 505 45,000 -49 Level Minneapolis Center
Sat 11:40:02 AM 44.0600 -85.3675 285° West 437 503 44,900 -49 Descending Minneapolis Center
Sat 11:41:03 AM 44.0908 -85.5314 285° West 438 504 44,900 49 Level Minneapolis Center
Sat 11:42:04 AM 44.1217 -85.6944 285° West 436 502 45,000 49 Climbing Minneapolis Center
Sat 11:43:06 AM 44.1522 -85.8608 284° West 440 506 45,000  Level Minneapolis Center
Sat 11:44:07 AM 44.1878 -86.0567 284° West 436 502 45,000  Level Minneapolis Center
Sat 11:45:09 AM 44.2169 -86.2181 284° West 430 495 45,000 -49 Level Minneapolis Center
Sat 11:46:10 AM 44.2458 -86.3789 284° West 427 491 44,900 -49 Descending Minneapolis Center
Sat 11:47:11 AM 44.2744 -86.5417 284° West 429 494 44,900  Level Minneapolis Center
Sat 11:48:13 AM 44.3039 -86.7050 284° West 431 496 44,900 49 Level Minneapolis Center
Sat 11:49:14 AM 44.3328 -86.8700 284° West 436 502 45,000 49 Climbing Minneapolis Center
Sat 11:50:15 AM 44.3564 -87.0033 284° West 439 505 45,000  Level Minneapolis Center
Sat 11:51:17 AM 44.3833 -87.1675 283° West 434 499 45,000  Level Minneapolis Center
Sat 11:52:19 AM 44.4192 -87.3750 284° West 437 503 45,000  Level Minneapolis Center
Sat 11:53:20 AM 44.4467 -87.5422 283° West 442 509 45,000  Level Minneapolis Center
Sat 11:54:22 AM 44.4797 -87.7389 283° West 448 516 45,000 -49 Level Minneapolis Center
Sat 11:55:23 AM 44.5089 -87.9114 283° West 452 520 44,900  Descending Minneapolis Center
Sat 11:56:37 AM 44.5367 -88.0819 283° West 448 516 45,000 41 Climbing Minneapolis Center
Sat 11:57:51 AM 44.5675 -88.2808 282° West 449 517 45,000  Level Minneapolis Center
Sat 11:58:52 AM 44.5989 -88.5117 281° West 452 520 45,000  Level Minneapolis Center
Sat 11:59:56 AM 44.6231 -88.6839 281° West 451 519 45,000  Level Minneapolis Center
Sat 12:00:58 PM 44.6456 -88.8575 280° West 454 522 45,000  Level Minneapolis Center
Sat 12:02:00 PM 44.6678 -89.0303 280° West 452 520 45,000  Level Minneapolis Center
Sat 12:03:01 PM 44.6906 -89.2025 281° West 449 517 45,000  Level Minneapolis Center
Sat 12:04:03 PM 44.7161 -89.4033 280° West 449 517 45,000  Level Minneapolis Center
Sat 12:05:04 PM 44.7389 -89.5772 281° West 452 520 45,000  Level Minneapolis Center
Sat 12:06:06 PM 44.7611 -89.7503 280° West 452 520 45,000  Level Minneapolis Center
Sat 12:07:07 PM 44.7825 -89.9258 280° West 454 522 45,000  Level Minneapolis Center
Sat 12:08:08 PM 44.8033 -90.1028 279° West 458 527 45,000  Level Minneapolis Center
Sat 12:09:10 PM 44.8256 -90.2814 280° West 462 532 45,000  Level Minneapolis Center
Sat 12:10:11 PM 44.8447 -90.4428 280° West 461 531 45,000  Level Minneapolis Center
Sat 12:11:13 PM 44.8692 -90.6572 279° West 462 532 45,000  Level Minneapolis Center
Sat 12:12:15 PM 44.8897 -90.8350 279° West 460 529 45,000  Level Minneapolis Center
Sat 12:13:16 PM 44.9097 -91.0106 279° West 457 526 45,000  Level Minneapolis Center
Sat 12:14:18 PM 44.9328 -91.1883 280° West 460 529 45,000  Level Minneapolis Center
Sat 12:15:19 PM 44.9736 -91.3625 288° West 466 536 45,000  Level Minneapolis Center
Sat 12:16:21 PM 45.0128 -91.5394 287° West 471 542 45,000  Level Minneapolis Center
Sat 12:17:22 PM 45.0597 -91.7503 288° West 473 544 45,000  Level Minneapolis Center
Sat 12:18:36 PM 45.0972 -91.9258 287° West 470 541 45,000  Level Minneapolis Center
Sat 12:19:38 PM 45.1400 -92.1333 286° West 464 534 45,000  Level Minneapolis Center
Sat 12:20:39 PM 45.1764 -92.3072 287° West 463 533 45,000  Level Minneapolis Center
Sat 12:21:41 PM 45.2131 -92.4831 287° West 468 539 45,000  Level Minneapolis Center
Sat 12:22:42 PM 45.2417 -92.6236 286° West 468 539 45,000  Level Minneapolis Center
Sat 12:23:44 PM 45.2925 -92.8697 286° West 469 540 45,000  Level Minneapolis Center
Sat 12:24:46 PM 45.3272 -93.0433 286° West 466 536 45,000  Level Minneapolis Center
Sat 12:25:47 PM 45.3622 -93.2169 286° West 463 533 45,000  Level Minneapolis Center
Sat 12:26:49 PM 45.3956 -93.3886 286° West 458 527 45,000  Level Minneapolis Center
Sat 12:27:50 PM 45.4294 -93.5597 286° West 455 524 45,000  Level Minneapolis Center
Sat 12:28:52 PM 45.4617 -93.7308 285° West 452 520 45,000  Level Minneapolis Center
Sat 12:29:53 PM 45.5017 -93.9361 286° West 452 520 45,000  Level Minneapolis Center
Sat 12:30:55 PM 45.5339 -94.1075 285° West 451 519 45,000  Level Minneapolis Center
Sat 12:31:56 PM 45.5608 -94.2472 285° West 456 525 45,000  Level Minneapolis Center
Sat 12:32:58 PM 45.5997 -94.4564 285° West 458 527 45,000  Level Minneapolis Center
Sat 12:33:59 PM 45.6325 -94.6300 285° West 456 525 45,000  Level Minneapolis Center
Sat 12:35:01 PM 45.6644 -94.8064 285° West 458 527 45,000  Level Minneapolis Center
Sat 12:36:02 PM 45.6961 -94.9825 284° West 461 531 45,000  Level Minneapolis Center
Sat 12:37:04 PM 45.7347 -95.1992 284° West 461 531 45,000  Level Minneapolis Center
Sat 12:38:17 PM 45.7672 -95.3769 285° West 463 533 45,000  Level Minneapolis Center
Sat 12:39:19 PM 45.8047 -95.5925 284° West 466 536 45,000  Level Minneapolis Center
Sat 12:40:21 PM 45.8361 -95.7728 284° West 468 539 45,000  Level Minneapolis Center
Sat 12:41:22 PM 45.8675 -95.9536 284° West 469 540 45,000  Level Minneapolis Center
Sat 12:42:24 PM 45.8992 -96.1364 284° West 473 544 45,000  Level Minneapolis Center
Sat 12:43:25 PM 45.9300 -96.3206 284° West 476 548 45,000  Level Minneapolis Center
Sat 12:44:27 PM 45.9669 -96.5411 284° West 476 548 45,000  Level Minneapolis Center
Sat 12:45:40 PM 45.9972 -96.7250 283° West 474 545 45,000  Level Minneapolis Center
Sat 12:46:42 PM 46.0339 -96.9447 284° West 473 544 45,000 -48 Level Minneapolis Center
Sat 12:47:44 PM 46.0647 -97.1342 283° West 476 548 44,900  Descending Minneapolis Center
Sat 12:48:45 PM 46.0939 -97.3178 283° West 472 543 45,000 49 Climbing Minneapolis Center
Sat 12:49:47 PM 46.1228 -97.4997 283° West 469 540 45,000 -48 Level Minneapolis Center
Sat 12:50:49 PM 46.1522 -97.6844 283° West 472 543 44,900 -49 Descending Minneapolis Center
Sat 12:51:50 PM 46.1800 -97.8706 282° West 474 545 44,900 49 Level Minneapolis Center
Sat 12:52:52 PM 46.2078 -98.0553 282° West 472 543 45,000 49 Climbing Minneapolis Center
Sat 12:53:53 PM 46.2372 -98.2439 283° West 477 549 45,000 -49 Level Minneapolis Center
Sat 12:54:55 PM 46.2714 -98.4708 282° West 482 555 44,900 -48 Descending Minneapolis Center
Sat 12:55:57 PM 46.2986 -98.6592 282° West 481 554 44,900 49 Level Minneapolis Center
Sat 12:56:58 PM 46.3261 -98.8464 282° West 478 550 45,000  Climbing Minneapolis Center
Sat 12:58:00 PM 46.3528 -99.0333 282° West 477 549 44,900  Descending Minneapolis Center
Sat 12:59:13 PM 46.3789 -99.2264 281° West 476 548 45,000 41 Climbing Minneapolis Center
Sat 01:00:28 PM 46.4150 -99.4886 281° West 476 548 45,000  Level Minneapolis Center
Sat 01:01:29 PM 46.4397 -99.6739 281° West 475 547 45,000  Level Minneapolis Center
Sat 01:02:31 PM 46.4703 -99.8978 281° West 474 545 45,000  Level Minneapolis Center
Sat 01:03:33 PM 46.4953 -100.0875 281° West 477 549 45,000  Level Minneapolis Center
Sat 01:04:46 PM 46.5189 -100.2769 280° West 478 550 45,000  Level Minneapolis Center
Sat 01:05:48 PM 46.5489 -100.5064 281° West 481 554 45,000  Level Minneapolis Center
Sat 01:06:50 PM 46.5728 -100.6994 280° West 483 556 45,000  Level Minneapolis Center
Sat 01:08:04 PM 46.5958 -100.8900 280° West 483 556 45,000  Level Minneapolis Center
Sat 01:09:06 PM 46.6236 -101.1156 280° West 480 552 45,000  Level Minneapolis Center
Sat 01:10:07 PM 46.6514 -101.3447 280° West 480 552 45,000  Level Minneapolis Center
Sat 01:11:09 PM 46.6739 -101.5367 280° West 481 554 45,000  Level Minneapolis Center
Sat 01:12:23 PM 46.6953 -101.7050 281° West 480 552 45,000  Level Minneapolis Center
Sat 01:13:25 PM 46.7272 -101.9733 280° West 481 554 45,000  Level Minneapolis Center
Sat 01:14:27 PM 46.7503 -102.1653 280° West 480 552 45,000  Level Minneapolis Center
Sat 01:15:28 PM 46.7678 -102.3172 280° West 478 550 45,000  Level Minneapolis Center
Sat 01:16:30 PM 46.7931 -102.5467 279° West 478 550 45,000  Level Minneapolis Center
Sat 01:17:32 PM 46.8150 -102.7369 280° West 477 549 45,000  Level Minneapolis Center
Sat 01:18:29 PM 46.8322 -102.9325 277° West 481 554 45,000  Level Salt Lake Center
Sat 01:19:30 PM 46.8528 -103.1236 279° West 479 551 45,000  Level Salt Lake Center
Sat 01:20:32 PM 46.8733 -103.3153 279° West 479 551 45,000  Level Salt Lake Center
Sat 01:21:33 PM 46.8911 -103.5100 278° West 480 552 45,000  Level Salt Lake Center
Sat 01:22:34 PM 46.9114 -103.6994 279° West 476 548 45,000  Level Salt Lake Center
Sat 01:23:36 PM 46.9292 -103.8931 278° West 478 550 45,000  Level Salt Lake Center
Sat 01:24:37 PM 46.9472 -104.0853 278° West 477 549 45,000  Level Salt Lake Center
Sat 01:25:38 PM 46.9650 -104.2778 278° West 477 549 45,000  Level Salt Lake Center
Sat 01:26:40 PM 46.9858 -104.5069 278° West 475 547 45,000  Level Salt Lake Center
Sat 01:27:41 PM 47.0033 -104.6997 278° West 477 549 45,000 -49 Level Salt Lake Center
Sat 01:28:42 PM 47.0206 -104.8950 277° West 480 552 44,900  Descending Salt Lake Center
Sat 01:29:44 PM 47.0389 -105.0892 278° West 481 554 45,000  Climbing Salt Lake Center
Sat 01:30:45 PM 47.0550 -105.2800 277° West 476 548 44,900  Descending Salt Lake Center
Sat 01:31:47 PM 47.0717 -105.4756 277° West 479 551 45,000 49 Climbing Salt Lake Center
Sat 01:32:48 PM 47.0878 -105.6686 277° West 479 551 45,000  Level Salt Lake Center
Sat 01:33:49 PM 47.1047 -105.8631 277° West 480 552 45,000  Level Salt Lake Center
Sat 01:34:51 PM 47.1197 -106.0575 277° West 483 556 45,000  Level Salt Lake Center
Sat 01:35:52 PM 47.1342 -106.2497 276° West 476 548 45,000  Level Salt Lake Center
Sat 01:36:54 PM 47.1503 -106.4603 276° West 478 550 45,000  Level Salt Lake Center
Sat 01:37:55 PM 47.1661 -106.6756 276° West 476 548 45,000  Level Salt Lake Center
Sat 01:38:57 PM 47.1792 -106.8619 276° West 479 551 45,000  Level Salt Lake Center
Sat 01:39:58 PM 47.1942 -107.0775 276° West 475 547 45,000  Level Salt Lake Center
Sat 01:41:00 PM 47.2050 -107.2617 275° West 474 545 45,000  Level Salt Lake Center
Sat 01:42:01 PM 47.2197 -107.4789 276° West 478 550 45,000  Level Salt Lake Center
Sat 01:43:03 PM 47.2322 -107.6658 276° West 480 552 45,000  Level Salt Lake Center
Sat 01:44:04 PM 47.2436 -107.8544 275° West 483 556 45,000  Level Salt Lake Center
Sat 01:45:06 PM 47.2567 -108.0725 275° West 480 552 45,000  Level Salt Lake Center
Sat 01:46:08 PM 47.2678 -108.2650 275° West 478 550 45,000  Level Salt Lake Center
Sat 01:47:09 PM 47.2789 -108.4597 275° West 480 552 45,000  Level Salt Lake Center
Sat 01:48:11 PM 47.2897 -108.6556 275° West 481 554 45,000  Level Salt Lake Center
Sat 01:49:13 PM 47.3000 -108.8522 274° West 483 556 45,000  Level Salt Lake Center
Sat 01:50:14 PM 47.3097 -109.0469 274° West 479 551 45,000  Level Salt Lake Center
Sat 01:51:16 PM 47.3197 -109.2422 274° West 479 551 45,000  Level Salt Lake Center
Sat 01:52:17 PM 47.3314 -109.4758 274° West 477 549 45,000  Level Salt Lake Center
Sat 01:53:19 PM 47.3397 -109.6733 274° West 483 556 45,000  Level Salt Lake Center
Sat 01:54:21 PM 47.3489 -109.8700 274° West 483 556 45,000  Level Salt Lake Center
Sat 01:55:22 PM 47.3572 -110.0675 274° West 484 557 45,000  Level Salt Lake Center
Sat 01:56:24 PM 47.3653 -110.2658 274° West 484 557 45,000  Level Salt Lake Center
Sat 01:57:26 PM 47.3736 -110.4642 274° West 485 558 45,000  Level Salt Lake Center
Sat 01:58:27 PM 47.3811 -110.6647 273° West 488 562 45,000  Level Salt Lake Center
Sat 01:59:29 PM 47.3900 -110.9039 273° West 487 560 45,000  Level Salt Lake Center
Sat 02:00:31 PM 47.3967 -111.1058 273° West 489 563 45,000  Level Salt Lake Center
Sat 02:01:33 PM 47.4028 -111.3089 273° West 489 563 45,000  Level Salt Lake Center
Sat 02:02:34 PM 47.4086 -111.5136 272° West 491 565 45,000  Level Salt Lake Center
Sat 02:03:36 PM 47.4147 -111.7106 273° West 481 554 45,000  Level Salt Lake Center
Sat 02:04:38 PM 47.4203 -111.9075 272° West 479 551 45,000  Level Salt Lake Center
Sat 02:05:39 PM 47.4242 -112.1058 272° West 482 555 45,000  Level Salt Lake Center
Sat 02:06:41 PM 47.4303 -112.3053 273° West 485 558 45,000  Level Salt Lake Center
Sat 02:07:43 PM 47.4333 -112.5042 271° West 485 558 45,000  Level Salt Lake Center
Sat 02:08:45 PM 47.4381 -112.7003 272° West 480 552 45,000  Level Salt Lake Center
Sat 02:09:46 PM 47.4414 -112.9353 271° West 478 550 45,000  Level Salt Lake Center
Sat 02:10:48 PM 47.4458 -113.1361 272° West 481 554 45,000  Level Salt Lake Center
Sat 02:11:50 PM 47.4486 -113.3336 271° West 480 552 45,000  Level Salt Lake Center
Sat 02:12:51 PM 47.4517 -113.5297 271° West 477 549 45,000  Level Salt Lake Center
Sat 02:13:53 PM 47.4539 -113.7272 271° West 479 551 45,000  Level Salt Lake Center
Sat 02:14:55 PM 47.4556 -113.9250 271° West 480 552 45,000  Level Salt Lake Center
Sat 02:15:56 PM 47.4578 -114.1228 271° West 479 551 45,000  Level Salt Lake Center
Sat 02:16:58 PM 47.4583 -114.3206 270° West 480 552 45,000  Level Salt Lake Center
Sat 02:18:00 PM 47.4592 -114.5164 270° West 475 547 45,000  Level Salt Lake Center
Sat 02:19:01 PM 47.4597 -114.7478 270° West 470 541 45,000  Level Salt Lake Center
Sat 02:20:07 PM 47.4792 -114.9417 279° West 478 550 45,000  Level Seattle Center
Sat 02:21:08 PM 47.5072 -115.1358 282° West 483 556 45,000  Level Seattle Center
Sat 02:22:09 PM 47.5369 -115.3289 283° West 482 555 45,000  Level Seattle Center
Sat 02:23:10 PM 47.5650 -115.5231 282° West 483 556 45,000  Level Seattle Center
Sat 02:24:10 PM 47.5950 -115.7164 283° West 483 556 45,000  Level Seattle Center
Sat 02:25:11 PM 47.6194 -115.9081 281° West 480 552 45,000  Level Seattle Center
Sat 02:26:12 PM 47.6456 -116.1008 281° West 479 551 45,000  Level Seattle Center
Sat 02:27:13 PM 47.6725 -116.2919 282° West 477 549 45,000  Level Seattle Center
Sat 02:28:14 PM 47.6994 -116.4806 282° West 473 544 45,000  Level Seattle Center
Sat 02:29:14 PM 47.7311 -116.7089 282° West 474 545 45,000  Level Seattle Center
Sat 02:30:15 PM 47.7564 -116.8994 281° West 476 548 45,000  Level Seattle Center
Sat 02:31:16 PM 47.7822 -117.0900 281° West 480 552 45,000  Level Seattle Center
Sat 02:32:17 PM 47.8067 -117.2806 281° West 479 551 45,000  Level Seattle Center
Sat 02:33:18 PM 47.8314 -117.4728 281° West 479 551 45,000  Level Seattle Center
Sat 02:34:19 PM 47.8547 -117.6675 280° West 482 555 45,000  Level Seattle Center
Sat 02:35:19 PM 47.8797 -117.8617 281° West 481 554 45,000  Level Seattle Center
Sat 02:36:20 PM 47.9028 -118.0533 280° West 475 547 45,000  Level Seattle Center
Sat 02:37:21 PM 47.9258 -118.2453 280° West 474 545 45,000  Level Seattle Center
Sat 02:38:22 PM 47.9525 -118.4756 280° West 473 544 45,000 -49 Level Seattle Center
Sat 02:39:23 PM 47.9744 -118.6697 280° West 475 547 44,900  Descending Seattle Center
Sat 02:40:24 PM 47.9981 -118.8614 280° West 473 544 45,000 50 Climbing Seattle Center
Sat 02:41:24 PM 48.0186 -119.0533 279° West 470 541 45,000  Level Seattle Center
Sat 02:42:25 PM 48.0408 -119.2483 280° West 475 547 45,000  Level Seattle Center
Sat 02:43:26 PM 48.0617 -119.4406 279° West 473 544 45,000  Level Seattle Center
Sat 02:44:27 PM 48.0817 -119.6325 279° West 470 541 45,000 -246 Level Seattle Center
Sat 02:45:28 PM 48.1022 -119.8242 279° West 468 539 44,500 -1,190 Descending Seattle Center
Sat 02:46:28 PM 48.1247 -120.0161 280° West 470 541 42,600 -2,182 Descending Seattle Center
Sat 02:47:29 PM 48.1417 -120.2103 278° West 472 543 40,100 -2,557 Descending Seattle Center
Sat 02:48:30 PM 48.1611 -120.4042 279° West 475 547 37,400 -2,459 Descending Seattle Center
Sat 02:49:31 PM 48.1828 -120.5961 280° West 470 541 35,100 -2,311 Descending Seattle Center
Sat 02:50:32 PM 48.2011 -120.7886 278° West 469 540 32,700 -2,430 Descending Seattle Center
Sat 02:51:32 PM 48.2203 -120.9950 278° West 473 544 30,200 -2,529 Descending Seattle Center
Sat 02:52:33 PM 48.2394 -121.1883 279° West 475 547 27,600 -2,508 Descending Seattle Center
Sat 02:53:34 PM 48.2558 -121.3703 278° West 452 520 25,100 -2,754 Descending Seattle Center
Sat 02:54:35 PM 48.2747 -121.5831 278° West 435 501 22,000 -2,951 Descending Seattle Center
Sat 02:55:36 PM 48.2906 -121.7556 278° West 425 489 19,100 -2,975 Descending Seattle Center
Sat 02:56:34 PM 48.3031 -121.9261 276° West 400 460 16,100 -3,034 Descending Seattle Center
Sat 02:57:05 PM 48.3106 -122.0056 278° West 388 447 14,600 -2,857 Descending Seattle Center
Sat 02:57:37 PM 48.3172 -122.0767 278° West 388 447 13,100 -2,600 Descending Seattle Center
Sat 02:58:05 PM 48.3231 -122.1558 276° West 367 422 12,000 -1,967 Descending Seattle Center
Sat 02:58:38 PM 48.3289 -122.2189 278° West 355 409 11,100 -1,770 Descending Seattle Center
Sat 02:59:06 PM 48.3331 -122.2806 276° West 290 334 10,200 -1,377 Descending Seattle Center
Sat 02:59:39 PM 48.3392 -122.3350 280° West 297 342 9,700 -1,100 Descending Seattle Center
Sat 03:00:06 PM 48.3672 -122.3947 305° West 282 325 9,100 -885 Descending Seattle Center
Sat 03:00:40 PM 48.3931 -122.4172 330° Northwest 295 339 8,800 -787 Descending Seattle Center
Sat 03:01:07 PM 48.4389 -122.4300 350° North 282 325 8,300 -787 Descending Seattle Center
Sat 03:01:41 PM 48.4689 -122.4358 353° North 282 325 8,000 -900 Descending Seattle Center
Sat 03:02:07 PM 48.5133 -122.4506 348° North 279 321 7,400 -1,180 Descending Seattle Center
Sat 03:02:42 PM 48.5594 -122.4636 349° North 281 323 6,800 -1,082 Descending Seattle Center
Sat 03:03:08 PM 48.5903 -122.4728 349° North 279 321 6,300 -1,279 Descending Seattle Center
Sat 03:03:43 PM 48.6319 -122.4853 349° North 275 316 5,500 -1,345 Descending Seattle Center
Sat 03:04:06 PM 48.6500 -122.5167 311° West 250 288 5,000 -1,084 Descending Vancouver Center
Sat 03:05:06 PM 48.7000 -122.5667 327° Northwest 240 276 4,000 -500 Descending Vancouver Center
Sat 03:06:06 PM 48.7333 -122.6167 315° West 210 242 4,000  Level Vancouver Center
Sat 03:07:06 PM 48.7833 -122.6667 327° Northwest 200 230 4,000 -450 Level Vancouver Center
Sat 03:08:06 PM 48.8333 -122.6667 360° North 190 219 3,100 -900 Descending Vancouver Center
Sat 03:09:06 PM 48.8833 -122.6500 12° North 180 207 2,200 -550 Descending Vancouver Center
Sat 03:10:06 PM 48.9000 -122.6000 63° Northeast 160 184 2,000 -250 Descending Vancouver Center
Sat 03:11:06 PM 48.8667 -122.5500 135° Southeast 160 184 1,700 -400 Descending Vancouver Center
Sat 03:12:06 PM 48.8333 -122.5333 162° South 150 173 1,200 -500 Descending Vancouver Center

Login

Don't have an account? Register now (free) for customized features, flight alerts, and more!